sensor_id;sensor_type;location;lat;lon;timestamp;temperature;humidity
62589;DHT22;58504;48.770;9.148;2022-08-03T00:01:22;25.60;55.60
62589;DHT22;58504;48.770;9.148;2022-08-03T00:03:49;25.60;55.70
62589;DHT22;58504;48.770;9.148;2022-08-03T00:06:16;25.60;55.60
62589;DHT22;58504;48.770;9.148;2022-08-03T00:08:43;25.60;55.60
62589;DHT22;58504;48.770;9.148;2022-08-03T00:11:10;25.60;55.60
62589;DHT22;58504;48.770;9.148;2022-08-03T00:13:37;25.60;55.60
62589;DHT22;58504;48.770;9.148;2022-08-03T00:16:04;25.60;55.60
62589;DHT22;58504;48.770;9.148;2022-08-03T00:18:32;25.60;55.60
62589;DHT22;58504;48.770;9.148;2022-08-03T00:20:59;25.60;55.60
62589;DHT22;58504;48.770;9.148;2022-08-03T00:23:25;25.60;55.60
62589;DHT22;58504;48.770;9.148;2022-08-03T00:25:52;25.60;55.60
62589;DHT22;58504;48.770;9.148;2022-08-03T00:28:19;25.60;55.60
62589;DHT22;58504;48.770;9.148;2022-08-03T00:30:46;25.60;55.60
62589;DHT22;58504;48.770;9.148;2022-08-03T00:33:13;25.50;55.60
62589;DHT22;58504;48.770;9.148;2022-08-03T00:35:41;25.60;55.60
62589;DHT22;58504;48.770;9.148;2022-08-03T00:38:08;25.60;55.70
62589;DHT22;58504;48.770;9.148;2022-08-03T00:40:35;25.60;55.60
62589;DHT22;58504;48.770;9.148;2022-08-03T00:43:03;25.60;55.60
62589;DHT22;58504;48.770;9.148;2022-08-03T00:45:32;25.60;55.70
62589;DHT22;58504;48.770;9.148;2022-08-03T00:47:59;25.60;55.70
62589;DHT22;58504;48.770;9.148;2022-08-03T00:50:28;25.60;55.70
62589;DHT22;58504;48.770;9.148;2022-08-03T00:52:58;25.60;55.70
62589;DHT22;58504;48.770;9.148;2022-08-03T00:55:25;25.60;55.70
62589;DHT22;58504;48.770;9.148;2022-08-03T00:57:52;25.60;55.70
62589;DHT22;58504;48.770;9.148;2022-08-03T01:00:20;25.60;55.70
62589;DHT22;58504;48.770;9.148;2022-08-03T01:02:48;25.60;55.70
62589;DHT22;58504;48.770;9.148;2022-08-03T01:05:15;25.60;55.70
62589;DHT22;58504;48.770;9.148;2022-08-03T01:08:01;25.60;55.60
62589;DHT22;58504;48.770;9.148;2022-08-03T01:10:35;25.50;55.60
62589;DHT22;58504;48.770;9.148;2022-08-03T01:13:18;25.50;55.60
62589;DHT22;58504;48.770;9.148;2022-08-03T01:15:53;25.50;55.60
62589;DHT22;58504;48.770;9.148;2022-08-03T01:18:28;25.50;55.60
62589;DHT22;58504;48.770;9.148;2022-08-03T01:20:58;25.50;55.60
62589;DHT22;58504;48.770;9.148;2022-08-03T01:23:36;25.50;55.70
62589;DHT22;58504;48.770;9.148;2022-08-03T01:26:26;25.50;55.60
62589;DHT22;58504;48.770;9.148;2022-08-03T01:29:07;25.50;55.60
62589;DHT22;58504;48.770;9.148;2022-08-03T01:31:43;25.50;55.60
62589;DHT22;58504;48.770;9.148;2022-08-03T01:34:13;25.50;56.20
62589;DHT22;58504;48.770;9.148;2022-08-03T01:36:45;25.50;55.70
62589;DHT22;58504;48.770;9.148;2022-08-03T01:39:14;25.50;55.60
62589;DHT22;58504;48.770;9.148;2022-08-03T01:41:46;25.50;55.70
62589;DHT22;58504;48.770;9.148;2022-08-03T01:44:14;25.50;55.70
62589;DHT22;58504;48.770;9.148;2022-08-03T01:46:43;25.50;55.70
62589;DHT22;58504;48.770;9.148;2022-08-03T01:49:14;25.50;55.70
62589;DHT22;58504;48.770;9.148;2022-08-03T01:51:43;25.50;55.70
62589;DHT22;58504;48.770;9.148;2022-08-03T01:54:11;25.50;55.70
62589;DHT22;58504;48.770;9.148;2022-08-03T01:56:39;25.50;55.70
62589;DHT22;58504;48.770;9.148;2022-08-03T01:59:07;25.50;55.70
62589;DHT22;58504;48.770;9.148;2022-08-03T02:01:36;25.50;55.80
62589;DHT22;58504;48.770;9.148;2022-08-03T02:04:07;25.50;55.70
62589;DHT22;58504;48.770;9.148;2022-08-03T02:06:35;25.50;55.70
62589;DHT22;58504;48.770;9.148;2022-08-03T02:09:04;25.50;55.70
62589;DHT22;58504;48.770;9.148;2022-08-03T02:11:33;25.50;55.70
62589;DHT22;58504;48.770;9.148;2022-08-03T02:14:03;25.50;55.70
62589;DHT22;58504;48.770;9.148;2022-08-03T02:16:32;25.50;55.80
62589;DHT22;58504;48.770;9.148;2022-08-03T02:19:02;25.50;55.70
62589;DHT22;58504;48.770;9.148;2022-08-03T02:21:31;25.50;55.70
62589;DHT22;58504;48.770;9.148;2022-08-03T02:23:59;25.50;55.70
62589;DHT22;58504;48.770;9.148;2022-08-03T02:26:28;25.50;55.70
62589;DHT22;58504;48.770;9.148;2022-08-03T02:28:56;25.50;55.80
62589;DHT22;58504;48.770;9.148;2022-08-03T02:31:28;25.50;55.80
62589;DHT22;58504;48.770;9.148;2022-08-03T02:34:13;25.50;55.80
62589;DHT22;58504;48.770;9.148;2022-08-03T02:36:45;25.50;55.80
62589;DHT22;58504;48.770;9.148;2022-08-03T02:39:18;25.50;55.80
62589;DHT22;58504;48.770;9.148;2022-08-03T02:41:49;25.50;56.30
62589;DHT22;58504;48.770;9.148;2022-08-03T02:44:19;25.40;55.70
62589;DHT22;58504;48.770;9.148;2022-08-03T02:46:48;25.40;55.70
62589;DHT22;58504;48.770;9.148;2022-08-03T02:49:19;25.40;55.70
62589;DHT22;58504;48.770;9.148;2022-08-03T02:51:49;25.40;55.70
62589;DHT22;58504;48.770;9.148;2022-08-03T02:54:18;25.40;55.70
62589;DHT22;58504;48.770;9.148;2022-08-03T02:56:46;25.40;55.70
62589;DHT22;58504;48.770;9.148;2022-08-03T02:59:14;25.40;55.70
62589;DHT22;58504;48.770;9.148;2022-08-03T03:01:43;25.40;55.70
62589;DHT22;58504;48.770;9.148;2022-08-03T03:04:11;25.40;55.70
62589;DHT22;58504;48.770;9.148;2022-08-03T03:06:38;25.40;55.80
62589;DHT22;58504;48.770;9.148;2022-08-03T03:09:07;25.40;55.70
62589;DHT22;58504;48.770;9.148;2022-08-03T03:11:37;25.40;55.70
62589;DHT22;58504;48.770;9.148;2022-08-03T03:14:05;25.40;55.70
62589;DHT22;58504;48.770;9.148;2022-08-03T03:16:33;25.40;55.70
62589;DHT22;58504;48.770;9.148;2022-08-03T03:19:01;25.40;55.80
62589;DHT22;58504;48.770;9.148;2022-08-03T03:21:30;25.40;56.30
62589;DHT22;58504;48.770;9.148;2022-08-03T03:23:58;25.40;55.80
62589;DHT22;58504;48.770;9.148;2022-08-03T03:26:27;25.40;55.80
62589;DHT22;58504;48.770;9.148;2022-08-03T03:28:54;25.40;55.70
62589;DHT22;58504;48.770;9.148;2022-08-03T03:31:21;25.40;55.80
62589;DHT22;58504;48.770;9.148;2022-08-03T03:33:48;25.40;55.70
62589;DHT22;58504;48.770;9.148;2022-08-03T03:36:15;25.30;55.70
62589;DHT22;58504;48.770;9.148;2022-08-03T03:38:43;25.40;55.80
62589;DHT22;58504;48.770;9.148;2022-08-03T03:41:10;25.40;55.70
62589;DHT22;58504;48.770;9.148;2022-08-03T03:43:38;25.40;55.80
62589;DHT22;58504;48.770;9.148;2022-08-03T03:46:05;25.40;55.80
62589;DHT22;58504;48.770;9.148;2022-08-03T03:48:32;25.40;55.80
62589;DHT22;58504;48.770;9.148;2022-08-03T03:50:59;25.40;55.80
62589;DHT22;58504;48.770;9.148;2022-08-03T03:53:26;25.40;55.80
62589;DHT22;58504;48.770;9.148;2022-08-03T03:55:53;25.40;55.80
62589;DHT22;58504;48.770;9.148;2022-08-03T03:58:20;25.40;55.80
62589;DHT22;58504;48.770;9.148;2022-08-03T04:00:49;25.40;55.80
62589;DHT22;58504;48.770;9.148;2022-08-03T04:03:15;25.40;55.80
62589;DHT22;58504;48.770;9.148;2022-08-03T04:05:43;25.40;55.80
62589;DHT22;58504;48.770;9.148;2022-08-03T04:08:27;25.40;55.80
62589;DHT22;58504;48.770;9.148;2022-08-03T04:11:15;25.30;55.80
62589;DHT22;58504;48.770;9.148;2022-08-03T04:13:48;25.40;55.90
62589;DHT22;58504;48.770;9.148;2022-08-03T04:16:19;25.40;55.80
62589;DHT22;58504;48.770;9.148;2022-08-03T04:18:58;25.40;55.80
62589;DHT22;58504;48.770;9.148;2022-08-03T04:21:27;25.40;55.80
62589;DHT22;58504;48.770;9.148;2022-08-03T04:24:01;25.40;56.50
62589;DHT22;58504;48.770;9.148;2022-08-03T04:26:30;25.40;55.80
62589;DHT22;58504;48.770;9.148;2022-08-03T04:28:59;25.40;55.80
62589;DHT22;58504;48.770;9.148;2022-08-03T04:31:29;25.40;55.80
62589;DHT22;58504;48.770;9.148;2022-08-03T04:33:56;25.40;55.80
62589;DHT22;58504;48.770;9.148;2022-08-03T04:36:25;25.40;55.80
62589;DHT22;58504;48.770;9.148;2022-08-03T04:38:56;25.40;55.80
62589;DHT22;58504;48.770;9.148;2022-08-03T04:41:25;25.40;55.80
62589;DHT22;58504;48.770;9.148;2022-08-03T04:43:54;25.40;55.80
62589;DHT22;58504;48.770;9.148;2022-08-03T04:46:22;25.40;55.80
62589;DHT22;58504;48.770;9.148;2022-08-03T04:48:51;25.40;55.80
62589;DHT22;58504;48.770;9.148;2022-08-03T04:51:18;25.40;55.70
62589;DHT22;58504;48.770;9.148;2022-08-03T04:53:45;25.40;55.70
62589;DHT22;58504;48.770;9.148;2022-08-03T04:56:12;25.40;55.70
62589;DHT22;58504;48.770;9.148;2022-08-03T04:58:38;25.40;55.70
62589;DHT22;58504;48.770;9.148;2022-08-03T05:01:05;25.50;55.70
62589;DHT22;58504;48.770;9.148;2022-08-03T05:03:32;25.50;55.70
62589;DHT22;58504;48.770;9.148;2022-08-03T05:06:00;25.50;55.70
62589;DHT22;58504;48.770;9.148;2022-08-03T05:08:27;25.50;55.60
62589;DHT22;58504;48.770;9.148;2022-08-03T05:10:54;25.50;55.60
62589;DHT22;58504;48.770;9.148;2022-08-03T05:13:21;25.50;55.60
62589;DHT22;58504;48.770;9.148;2022-08-03T05:15:48;25.50;55.60
62589;DHT22;58504;48.770;9.148;2022-08-03T05:18:15;25.50;55.50
62589;DHT22;58504;48.770;9.148;2022-08-03T05:20:42;25.60;55.60
62589;DHT22;58504;48.770;9.148;2022-08-03T05:23:10;25.60;55.60
62589;DHT22;58504;48.770;9.148;2022-08-03T05:25:37;25.60;55.50
62589;DHT22;58504;48.770;9.148;2022-08-03T05:28:04;25.60;55.50
62589;DHT22;58504;48.770;9.148;2022-08-03T05:30:30;25.60;55.40
62589;DHT22;58504;48.770;9.148;2022-08-03T05:32:57;25.60;55.30
62589;DHT22;58504;48.770;9.148;2022-08-03T05:35:24;25.60;55.30
62589;DHT22;58504;48.770;9.148;2022-08-03T05:37:53;25.70;55.30
62589;DHT22;58504;48.770;9.148;2022-08-03T05:40:21;25.70;55.20
62589;DHT22;58504;48.770;9.148;2022-08-03T05:42:48;25.70;55.10
62589;DHT22;58504;48.770;9.148;2022-08-03T05:45:15;25.70;55.10
62589;DHT22;58504;48.770;9.148;2022-08-03T05:47:43;25.70;55.00
62589;DHT22;58504;48.770;9.148;2022-08-03T05:50:10;25.80;55.00
62589;DHT22;58504;48.770;9.148;2022-08-03T05:52:37;25.80;54.90
62589;DHT22;58504;48.770;9.148;2022-08-03T05:55:05;25.80;54.80
62589;DHT22;58504;48.770;9.148;2022-08-03T05:57:33;25.80;54.70
62589;DHT22;58504;48.770;9.148;2022-08-03T06:00:01;25.80;55.20
62589;DHT22;58504;48.770;9.148;2022-08-03T06:02:29;25.90;54.60
62589;DHT22;58504;48.770;9.148;2022-08-03T06:04:56;25.90;54.50
62589;DHT22;58504;48.770;9.148;2022-08-03T06:07:23;25.90;54.50
62589;DHT22;58504;48.770;9.148;2022-08-03T06:09:50;26.00;54.40
62589;DHT22;58504;48.770;9.148;2022-08-03T06:12:17;26.00;54.30
62589;DHT22;58504;48.770;9.148;2022-08-03T06:14:45;26.00;54.20
62589;DHT22;58504;48.770;9.148;2022-08-03T06:17:12;26.00;54.10
62589;DHT22;58504;48.770;9.148;2022-08-03T06:19:39;26.10;54.10
62589;DHT22;58504;48.770;9.148;2022-08-03T06:22:05;26.10;54.10
62589;DHT22;58504;48.770;9.148;2022-08-03T06:24:32;26.10;54.00
62589;DHT22;58504;48.770;9.148;2022-08-03T06:26:59;26.10;53.90
62589;DHT22;58504;48.770;9.148;2022-08-03T06:29:26;26.20;53.90
62589;DHT22;58504;48.770;9.148;2022-08-03T06:31:54;26.20;53.80
62589;DHT22;58504;48.770;9.148;2022-08-03T06:34:21;26.20;53.70
62589;DHT22;58504;48.770;9.148;2022-08-03T06:36:48;26.30;53.70
62589;DHT22;58504;48.770;9.148;2022-08-03T06:39:15;26.30;53.60
62589;DHT22;58504;48.770;9.148;2022-08-03T06:41:43;26.30;53.50
62589;DHT22;58504;48.770;9.148;2022-08-03T06:44:10;26.40;53.50
62589;DHT22;58504;48.770;9.148;2022-08-03T06:46:37;26.40;53.40
62589;DHT22;58504;48.770;9.148;2022-08-03T06:49:06;26.50;53.40
62589;DHT22;58504;48.770;9.148;2022-08-03T06:51:33;26.50;53.20
62589;DHT22;58504;48.770;9.148;2022-08-03T06:54:00;26.50;53.10
62589;DHT22;58504;48.770;9.148;2022-08-03T06:56:26;26.60;53.10
62589;DHT22;58504;48.770;9.148;2022-08-03T06:58:53;26.60;52.90
62589;DHT22;58504;48.770;9.148;2022-08-03T07:01:20;26.70;52.70
62589;DHT22;58504;48.770;9.148;2022-08-03T07:03:47;26.90;52.60
62589;DHT22;58504;48.770;9.148;2022-08-03T07:06:15;27.00;52.20
62589;DHT22;58504;48.770;9.148;2022-08-03T07:08:42;27.20;51.80
62589;DHT22;58504;48.770;9.148;2022-08-03T07:11:09;27.40;51.40
62589;DHT22;58504;48.770;9.148;2022-08-03T07:13:35;27.60;50.80
62589;DHT22;58504;48.770;9.148;2022-08-03T07:16:02;27.90;50.30
62589;DHT22;58504;48.770;9.148;2022-08-03T07:18:29;28.20;49.50
62589;DHT22;58504;48.770;9.148;2022-08-03T07:20:56;28.50;48.80
62589;DHT22;58504;48.770;9.148;2022-08-03T07:23:24;28.80;48.00
62589;DHT22;58504;48.770;9.148;2022-08-03T07:25:51;29.20;47.40
62589;DHT22;58504;48.770;9.148;2022-08-03T07:28:18;29.50;46.60
62589;DHT22;58504;48.770;9.148;2022-08-03T07:30:45;29.70;45.90
62589;DHT22;58504;48.770;9.148;2022-08-03T07:33:12;30.00;45.40
62589;DHT22;58504;48.770;9.148;2022-08-03T07:35:39;30.10;44.80
62589;DHT22;58504;48.770;9.148;2022-08-03T07:38:06;30.40;44.40
62589;DHT22;58504;48.770;9.148;2022-08-03T07:40:34;30.60;43.90
62589;DHT22;58504;48.770;9.148;2022-08-03T07:43:01;30.80;43.30
62589;DHT22;58504;48.770;9.148;2022-08-03T07:45:28;31.10;42.90
62589;DHT22;58504;48.770;9.148;2022-08-03T07:47:55;31.30;42.40
62589;DHT22;58504;48.770;9.148;2022-08-03T07:50:22;31.60;41.90
62589;DHT22;58504;48.770;9.148;2022-08-03T07:52:50;31.80;41.40
62589;DHT22;58504;48.770;9.148;2022-08-03T07:55:19;32.00;40.90
62589;DHT22;58504;48.770;9.148;2022-08-03T07:57:59;32.40;40.30
62589;DHT22;58504;48.770;9.148;2022-08-03T08:00:25;32.90;39.40
62589;DHT22;58504;48.770;9.148;2022-08-03T08:02:52;33.20;38.70
62589;DHT22;58504;48.770;9.148;2022-08-03T08:05:19;33.50;38.10
62589;DHT22;58504;48.770;9.148;2022-08-03T08:07:46;33.80;37.50
62589;DHT22;58504;48.770;9.148;2022-08-03T08:10:13;34.10;36.90
62589;DHT22;58504;48.770;9.148;2022-08-03T08:12:40;34.40;36.40
62589;DHT22;58504;48.770;9.148;2022-08-03T08:15:09;34.60;36.10
62589;DHT22;58504;48.770;9.148;2022-08-03T08:17:43;34.80;35.70
62589;DHT22;58504;48.770;9.148;2022-08-03T08:20:14;35.10;35.20
62589;DHT22;58504;48.770;9.148;2022-08-03T08:22:41;35.20;35.40
62589;DHT22;58504;48.770;9.148;2022-08-03T08:25:08;35.40;34.70
62589;DHT22;58504;48.770;9.148;2022-08-03T08:27:40;35.40;34.50
62589;DHT22;58504;48.770;9.148;2022-08-03T08:30:10;35.40;34.30
62589;DHT22;58504;48.770;9.148;2022-08-03T08:32:37;35.40;34.40
62589;DHT22;58504;48.770;9.148;2022-08-03T08:35:05;35.50;34.40
62589;DHT22;58504;48.770;9.148;2022-08-03T08:37:33;35.50;34.30
62589;DHT22;58504;48.770;9.148;2022-08-03T08:40:00;35.60;34.20
62589;DHT22;58504;48.770;9.148;2022-08-03T08:42:27;35.60;33.90
62589;DHT22;58504;48.770;9.148;2022-08-03T08:44:54;35.70;33.80
62589;DHT22;58504;48.770;9.148;2022-08-03T08:47:24;35.80;33.70
62589;DHT22;58504;48.770;9.148;2022-08-03T08:49:52;35.90;33.40
62589;DHT22;58504;48.770;9.148;2022-08-03T08:52:23;36.00;33.30
62589;DHT22;58504;48.770;9.148;2022-08-03T08:54:51;36.10;33.30
62589;DHT22;58504;48.770;9.148;2022-08-03T08:57:21;36.00;33.30
62589;DHT22;58504;48.770;9.148;2022-08-03T08:59:49;35.90;33.40
62589;DHT22;58504;48.770;9.148;2022-08-03T09:02:15;35.80;33.60
62589;DHT22;58504;48.770;9.148;2022-08-03T09:04:43;35.60;34.00
62589;DHT22;58504;48.770;9.148;2022-08-03T09:07:13;35.30;34.30
62589;DHT22;58504;48.770;9.148;2022-08-03T09:09:40;35.00;34.90
62589;DHT22;58504;48.770;9.148;2022-08-03T09:12:07;34.60;35.40
62589;DHT22;58504;48.770;9.148;2022-08-03T09:14:34;34.30;36.00
62589;DHT22;58504;48.770;9.148;2022-08-03T09:17:02;33.80;36.70
62589;DHT22;58504;48.770;9.148;2022-08-03T09:19:30;33.40;37.40
62589;DHT22;58504;48.770;9.148;2022-08-03T09:22:11;33.00;38.30
62589;DHT22;58504;48.770;9.148;2022-08-03T09:24:53;32.50;39.40
62589;DHT22;58504;48.770;9.148;2022-08-03T09:27:21;31.90;40.50
62589;DHT22;58504;48.770;9.148;2022-08-03T09:29:48;31.30;41.50
62589;DHT22;58504;48.770;9.148;2022-08-03T09:32:18;30.90;42.50
62589;DHT22;58504;48.770;9.148;2022-08-03T09:34:46;30.50;43.50
62589;DHT22;58504;48.770;9.148;2022-08-03T09:37:16;30.10;44.30
62589;DHT22;58504;48.770;9.148;2022-08-03T09:39:43;29.80;45.00
62589;DHT22;58504;48.770;9.148;2022-08-03T09:42:12;29.50;45.60
62589;DHT22;58504;48.770;9.148;2022-08-03T09:44:42;29.30;46.10
62589;DHT22;58504;48.770;9.148;2022-08-03T09:47:10;29.10;46.60
62589;DHT22;58504;48.770;9.148;2022-08-03T09:49:38;28.90;46.90
62589;DHT22;58504;48.770;9.148;2022-08-03T09:52:18;28.70;47.30
62589;DHT22;58504;48.770;9.148;2022-08-03T09:54:50;28.60;47.70
62589;DHT22;58504;48.770;9.148;2022-08-03T09:57:21;28.50;48.00
62589;DHT22;58504;48.770;9.148;2022-08-03T09:59:49;28.40;48.20
62589;DHT22;58504;48.770;9.148;2022-08-03T10:02:23;28.30;48.40
62589;DHT22;58504;48.770;9.148;2022-08-03T10:04:51;28.20;48.70
62589;DHT22;58504;48.770;9.148;2022-08-03T10:07:21;28.10;48.80
62589;DHT22;58504;48.770;9.148;2022-08-03T10:09:56;28.10;49.10
62589;DHT22;58504;48.770;9.148;2022-08-03T10:12:23;28.00;49.30
62589;DHT22;58504;48.770;9.148;2022-08-03T10:14:51;27.90;49.40
62589;DHT22;58504;48.770;9.148;2022-08-03T10:17:18;27.90;49.50
62589;DHT22;58504;48.770;9.148;2022-08-03T10:19:45;27.80;49.70
62589;DHT22;58504;48.770;9.148;2022-08-03T10:22:14;27.80;49.90
62589;DHT22;58504;48.770;9.148;2022-08-03T10:24:48;27.70;49.90
62589;DHT22;58504;48.770;9.148;2022-08-03T10:27:18;27.70;50.10
62589;DHT22;58504;48.770;9.148;2022-08-03T10:29:50;27.60;50.10
62589;DHT22;58504;48.770;9.148;2022-08-03T10:32:21;27.60;50.20
62589;DHT22;58504;48.770;9.148;2022-08-03T10:34:49;27.60;50.30
62589;DHT22;58504;48.770;9.148;2022-08-03T10:37:18;27.60;50.40
62589;DHT22;58504;48.770;9.148;2022-08-03T10:39:48;27.50;51.00
62589;DHT22;58504;48.770;9.148;2022-08-03T10:42:23;27.50;50.60
62589;DHT22;58504;48.770;9.148;2022-08-03T10:44:57;27.50;50.70
62589;DHT22;58504;48.770;9.148;2022-08-03T10:47:27;27.50;50.70
62589;DHT22;58504;48.770;9.148;2022-08-03T10:49:55;27.50;50.80
62589;DHT22;58504;48.770;9.148;2022-08-03T10:52:22;27.40;50.80
62589;DHT22;58504;48.770;9.148;2022-08-03T10:54:50;27.40;50.90
62589;DHT22;58504;48.770;9.148;2022-08-03T10:57:48;27.40;50.90
62589;DHT22;58504;48.770;9.148;2022-08-03T11:00:16;27.40;51.10
62589;DHT22;58504;48.770;9.148;2022-08-03T11:03:06;27.40;51.10
62589;DHT22;58504;48.770;9.148;2022-08-03T11:05:37;27.30;51.10
62589;DHT22;58504;48.770;9.148;2022-08-03T11:08:27;27.30;51.20
62589;DHT22;58504;48.770;9.148;2022-08-03T11:11:00;27.30;51.30
62589;DHT22;58504;48.770;9.148;2022-08-03T11:13:29;27.30;51.30
62589;DHT22;58504;48.770;9.148;2022-08-03T11:16:00;27.20;51.30
62589;DHT22;58504;48.770;9.148;2022-08-03T11:18:27;27.20;51.30
62589;DHT22;58504;48.770;9.148;2022-08-03T11:20:55;27.20;51.40
62589;DHT22;58504;48.770;9.148;2022-08-03T11:23:44;27.20;51.40
62589;DHT22;58504;48.770;9.148;2022-08-03T11:26:13;27.20;51.50
62589;DHT22;58504;48.770;9.148;2022-08-03T11:28:42;27.20;51.60
62589;DHT22;58504;48.770;9.148;2022-08-03T11:31:42;27.20;51.60
62589;DHT22;58504;48.770;9.148;2022-08-03T11:34:13;27.10;51.70
62589;DHT22;58504;48.770;9.148;2022-08-03T11:37:18;27.10;51.70
62589;DHT22;58504;48.770;9.148;2022-08-03T11:39:48;27.10;51.70
62589;DHT22;58504;48.770;9.148;2022-08-03T11:42:42;27.10;51.70
62589;DHT22;58504;48.770;9.148;2022-08-03T11:45:18;27.10;51.80
62589;DHT22;58504;48.770;9.148;2022-08-03T11:47:45;27.10;51.90
62589;DHT22;58504;48.770;9.148;2022-08-03T11:50:12;27.10;51.80
62589;DHT22;58504;48.770;9.148;2022-08-03T11:52:41;27.00;51.80
62589;DHT22;58504;48.770;9.148;2022-08-03T11:55:13;27.00;51.80
62589;DHT22;58504;48.770;9.148;2022-08-03T11:57:42;27.00;51.90
62589;DHT22;58504;48.770;9.148;2022-08-03T12:00:34;27.00;51.90
62589;DHT22;58504;48.770;9.148;2022-08-03T12:03:04;27.00;51.90
62589;DHT22;58504;48.770;9.148;2022-08-03T12:05:43;27.00;51.90
62589;DHT22;58504;48.770;9.148;2022-08-03T12:08:11;27.00;51.90
62589;DHT22;58504;48.770;9.148;2022-08-03T12:10:39;27.00;51.90
62589;DHT22;58504;48.770;9.148;2022-08-03T12:13:08;27.00;51.90
62589;DHT22;58504;48.770;9.148;2022-08-03T12:15:35;27.00;51.90
62589;DHT22;58504;48.770;9.148;2022-08-03T12:18:11;27.00;51.90
62589;DHT22;58504;48.770;9.148;2022-08-03T12:20:39;27.00;51.90
62589;DHT22;58504;48.770;9.148;2022-08-03T12:23:06;27.00;51.90
62589;DHT22;58504;48.770;9.148;2022-08-03T12:25:34;27.00;51.90
62589;DHT22;58504;48.770;9.148;2022-08-03T12:28:11;27.00;51.90
62589;DHT22;58504;48.770;9.148;2022-08-03T12:30:41;27.00;51.90
62589;DHT22;58504;48.770;9.148;2022-08-03T12:33:20;27.10;52.00
62589;DHT22;58504;48.770;9.148;2022-08-03T12:35:49;27.00;52.00
62589;DHT22;58504;48.770;9.148;2022-08-03T12:38:22;27.00;52.00
62589;DHT22;58504;48.770;9.148;2022-08-03T12:40:57;27.00;52.00
62589;DHT22;58504;48.770;9.148;2022-08-03T12:43:25;27.00;52.00
62589;DHT22;58504;48.770;9.148;2022-08-03T12:46:12;27.00;52.00
62589;DHT22;58504;48.770;9.148;2022-08-03T12:48:59;27.00;52.00
62589;DHT22;58504;48.770;9.148;2022-08-03T12:51:28;27.00;52.10
62589;DHT22;58504;48.770;9.148;2022-08-03T12:53:57;26.90;52.00
62589;DHT22;58504;48.770;9.148;2022-08-03T12:56:24;26.90;51.90
62589;DHT22;58504;48.770;9.148;2022-08-03T12:58:52;27.00;52.00
62589;DHT22;58504;48.770;9.148;2022-08-03T13:01:19;27.00;52.00
62589;DHT22;58504;48.770;9.148;2022-08-03T13:03:50;27.00;52.00
62589;DHT22;58504;48.770;9.148;2022-08-03T13:06:19;26.90;52.00
62589;DHT22;58504;48.770;9.148;2022-08-03T13:08:47;26.90;52.10
62589;DHT22;58504;48.770;9.148;2022-08-03T13:11:21;27.00;52.10
62589;DHT22;58504;48.770;9.148;2022-08-03T13:13:48;26.90;52.10
62589;DHT22;58504;48.770;9.148;2022-08-03T13:16:17;26.90;52.10
62589;DHT22;58504;48.770;9.148;2022-08-03T13:18:43;26.90;52.10
62589;DHT22;58504;48.770;9.148;2022-08-03T13:21:12;26.90;52.10
62589;DHT22;58504;48.770;9.148;2022-08-03T13:23:39;26.90;52.10
62589;DHT22;58504;48.770;9.148;2022-08-03T13:26:06;27.00;52.20
62589;DHT22;58504;48.770;9.148;2022-08-03T13:28:33;27.00;52.20
62589;DHT22;58504;48.770;9.148;2022-08-03T13:31:00;27.00;52.10
62589;DHT22;58504;48.770;9.148;2022-08-03T13:33:28;26.90;52.10
62589;DHT22;58504;48.770;9.148;2022-08-03T13:35:55;27.00;52.10
62589;DHT22;58504;48.770;9.148;2022-08-03T13:38:22;27.10;52.10
62589;DHT22;58504;48.770;9.148;2022-08-03T13:40:50;27.00;52.00
62589;DHT22;58504;48.770;9.148;2022-08-03T13:43:17;27.00;52.00
62589;DHT22;58504;48.770;9.148;2022-08-03T13:45:44;27.00;52.00
62589;DHT22;58504;48.770;9.148;2022-08-03T13:48:10;27.00;52.00
62589;DHT22;58504;48.770;9.148;2022-08-03T13:50:39;27.00;52.00
62589;DHT22;58504;48.770;9.148;2022-08-03T13:53:05;27.00;51.90
62589;DHT22;58504;48.770;9.148;2022-08-03T13:55:32;27.00;51.90
62589;DHT22;58504;48.770;9.148;2022-08-03T13:57:59;27.10;52.00
62589;DHT22;58504;48.770;9.148;2022-08-03T14:00:26;27.10;52.00
62589;DHT22;58504;48.770;9.148;2022-08-03T14:02:52;27.10;52.00
62589;DHT22;58504;48.770;9.148;2022-08-03T14:05:19;27.00;51.80
62589;DHT22;58504;48.770;9.148;2022-08-03T14:07:47;27.10;51.90
62589;DHT22;58504;48.770;9.148;2022-08-03T14:10:14;27.10;52.40
62589;DHT22;58504;48.770;9.148;2022-08-03T14:12:42;27.10;51.80
62589;DHT22;58504;48.770;9.148;2022-08-03T14:15:09;27.10;51.80
62589;DHT22;58504;48.770;9.148;2022-08-03T14:17:37;27.00;51.70
62589;DHT22;58504;48.770;9.148;2022-08-03T14:20:05;27.10;51.80
62589;DHT22;58504;48.770;9.148;2022-08-03T14:22:32;27.00;51.70
62589;DHT22;58504;48.770;9.148;2022-08-03T14:25:00;27.10;51.80
62589;DHT22;58504;48.770;9.148;2022-08-03T14:27:27;27.00;51.70
62589;DHT22;58504;48.770;9.148;2022-08-03T14:29:54;27.00;51.80
62589;DHT22;58504;48.770;9.148;2022-08-03T14:32:24;27.00;51.80
62589;DHT22;58504;48.770;9.148;2022-08-03T14:34:51;27.00;51.80
62589;DHT22;58504;48.770;9.148;2022-08-03T14:37:18;27.00;51.90
62589;DHT22;58504;48.770;9.148;2022-08-03T14:39:45;27.00;51.90
62589;DHT22;58504;48.770;9.148;2022-08-03T14:42:14;26.90;51.90
62589;DHT22;58504;48.770;9.148;2022-08-03T14:44:41;26.90;52.00
62589;DHT22;58504;48.770;9.148;2022-08-03T14:47:08;26.90;52.00
62589;DHT22;58504;48.770;9.148;2022-08-03T14:49:34;26.90;52.10
62589;DHT22;58504;48.770;9.148;2022-08-03T14:52:03;26.90;52.10
62589;DHT22;58504;48.770;9.148;2022-08-03T14:54:29;26.90;52.10
62589;DHT22;58504;48.770;9.148;2022-08-03T14:56:56;26.90;52.20
62589;DHT22;58504;48.770;9.148;2022-08-03T14:59:26;26.80;52.20
62589;DHT22;58504;48.770;9.148;2022-08-03T15:01:53;26.80;52.80
62589;DHT22;58504;48.770;9.148;2022-08-03T15:04:20;26.80;52.30
62589;DHT22;58504;48.770;9.148;2022-08-03T15:06:47;26.80;52.40
62589;DHT22;58504;48.770;9.148;2022-08-03T15:09:13;26.80;52.40
62589;DHT22;58504;48.770;9.148;2022-08-03T15:11:41;26.80;52.40
62589;DHT22;58504;48.770;9.148;2022-08-03T15:14:07;26.80;52.50
62589;DHT22;58504;48.770;9.148;2022-08-03T15:16:36;26.80;52.50
62589;DHT22;58504;48.770;9.148;2022-08-03T15:19:03;26.70;52.50
62589;DHT22;58504;48.770;9.148;2022-08-03T15:21:30;26.70;52.50
62589;DHT22;58504;48.770;9.148;2022-08-03T15:23:56;26.70;52.50
62589;DHT22;58504;48.770;9.148;2022-08-03T15:26:23;26.70;52.60
62589;DHT22;58504;48.770;9.148;2022-08-03T15:28:50;26.70;52.60
62589;DHT22;58504;48.770;9.148;2022-08-03T15:31:20;26.70;52.60
62589;DHT22;58504;48.770;9.148;2022-08-03T15:33:48;26.70;52.60
62589;DHT22;58504;48.770;9.148;2022-08-03T15:36:15;26.60;52.60
62589;DHT22;58504;48.770;9.148;2022-08-03T15:38:42;26.70;52.70
62589;DHT22;58504;48.770;9.148;2022-08-03T15:41:09;26.70;52.70
62589;DHT22;58504;48.770;9.148;2022-08-03T15:43:36;26.60;53.30